createdAt,value
2023-06-11T00:01:53.510Z,99.90
2023-06-11T00:04:26.325Z,99.90
2023-06-11T00:06:54.719Z,99.90
2023-06-11T00:09:24.374Z,99.90
2023-06-11T00:11:51.209Z,99.90
2023-06-11T00:14:18.037Z,99.90
2023-06-11T00:16:45.122Z,99.90
2023-06-11T00:19:13.052Z,99.90
2023-06-11T00:21:45.006Z,99.90
2023-06-11T00:24:16.198Z,99.90
2023-06-11T00:26:43.222Z,99.90
2023-06-11T00:29:10.552Z,99.90
2023-06-11T00:31:37.799Z,99.90
2023-06-11T00:34:05.294Z,99.90
2023-06-11T00:36:34.407Z,99.90
2023-06-11T00:39:01.345Z,99.90
2023-06-11T00:41:30.959Z,99.90
2023-06-11T00:43:58.420Z,99.90
2023-06-11T00:46:25.877Z,99.90
2023-06-11T00:48:53.137Z,99.90
2023-06-11T00:51:25.076Z,99.90
2023-06-11T00:53:53.085Z,99.90
2023-06-11T00:56:20.572Z,99.90
2023-06-11T00:58:49.760Z,99.90
2023-06-11T01:01:27.569Z,99.90
2023-06-11T01:03:57.860Z,99.90
2023-06-11T01:06:29.988Z,99.90
2023-06-11T01:08:58.700Z,99.90
2023-06-11T01:11:28.490Z,99.90
2023-06-11T01:13:55.336Z,99.90
2023-06-11T01:16:38.127Z,99.90
2023-06-11T01:19:30.640Z,99.90
2023-06-11T01:22:03.042Z,99.90
2023-06-11T01:25:05.932Z,99.90
2023-06-11T01:27:45.013Z,99.90
2023-06-11T01:30:18.431Z,99.90
2023-06-11T01:32:54.205Z,99.90
2023-06-11T01:35:21.660Z,99.90
2023-06-11T01:37:56.193Z,99.90
2023-06-11T01:40:29.727Z,99.90
2023-06-11T01:42:57.057Z,99.90
2023-06-11T01:45:26.096Z,99.90
2023-06-11T01:47:53.285Z,99.90
2023-06-11T01:50:21.828Z,99.90
2023-06-11T01:52:48.911Z,99.90
2023-06-11T01:55:16.597Z,99.90
2023-06-11T01:57:43.412Z,99.90
2023-06-11T02:00:11.099Z,99.90
2023-06-11T02:02:39.676Z,99.90
2023-06-11T02:05:07.088Z,99.90
2023-06-11T02:07:34.504Z,99.90
2023-06-11T02:10:01.422Z,99.90
2023-06-11T02:12:28.149Z,99.90
2023-06-11T02:14:54.868Z,99.90
2023-06-11T02:17:22.136Z,99.90
2023-06-11T02:19:50.426Z,99.90
2023-06-11T02:22:17.166Z,99.90
2023-06-11T02:24:43.935Z,99.90
2023-06-11T02:27:11.059Z,99.90
2023-06-11T02:29:37.966Z,99.90
2023-06-11T02:32:08.239Z,99.90
2023-06-11T02:34:35.553Z,99.90
2023-06-11T02:37:02.255Z,99.90
2023-06-11T02:39:29.823Z,99.90
2023-06-11T02:41:56.530Z,99.90
2023-06-11T02:44:24.281Z,99.90
2023-06-11T02:46:51.012Z,99.90
2023-06-11T02:49:18.683Z,99.90
2023-06-11T02:51:45.492Z,99.90
2023-06-11T02:54:12.671Z,99.90
2023-06-11T02:56:39.686Z,99.90
2023-06-11T02:59:06.981Z,99.90
2023-06-11T03:01:34.303Z,99.90
2023-06-11T03:04:01.588Z,99.90
2023-06-11T03:06:28.846Z,99.90
2023-06-11T03:08:56.015Z,99.90
2023-06-11T03:11:22.960Z,99.90
2023-06-11T03:13:49.930Z,99.90
2023-06-11T03:16:16.902Z,99.90
2023-06-11T03:18:45.572Z,99.90
2023-06-11T03:21:12.683Z,99.90
2023-06-11T03:23:40.428Z,99.90
2023-06-11T03:26:09.586Z,99.90
2023-06-11T03:28:36.596Z,99.90
2023-06-11T03:31:03.834Z,99.90
2023-06-11T03:33:30.888Z,99.90
2023-06-11T03:35:57.966Z,99.90
2023-06-11T03:38:24.955Z,99.90
2023-06-11T03:40:52.314Z,99.90
2023-06-11T03:43:19.678Z,99.90
2023-06-11T03:45:46.597Z,99.90
2023-06-11T03:48:13.520Z,99.90
2023-06-11T03:50:40.603Z,99.90
2023-06-11T03:53:07.903Z,99.90
2023-06-11T03:55:35.146Z,99.90
2023-06-11T03:58:02.309Z,99.90
2023-06-11T04:00:33.290Z,99.90
2023-06-11T04:03:01.134Z,99.90
2023-06-11T04:05:28.284Z,99.90
2023-06-11T04:07:55.188Z,99.90
2023-06-11T04:10:23.618Z,99.90
2023-06-11T04:12:51.017Z,99.90
2023-06-11T04:15:17.966Z,99.90
2023-06-11T04:17:44.929Z,99.90
2023-06-11T04:20:12.566Z,99.90
2023-06-11T04:22:39.580Z,99.90
2023-06-11T04:25:08.511Z,99.90
2023-06-11T04:27:37.903Z,99.90
2023-06-11T04:30:06.133Z,99.90
2023-06-11T04:32:36.485Z,99.90
2023-06-11T04:35:04.838Z,99.90
2023-06-11T04:37:39.770Z,99.90
2023-06-11T04:40:11.453Z,99.90
2023-06-11T04:42:41.631Z,99.90
2023-06-11T04:45:11.159Z,99.90
2023-06-11T04:47:39.599Z,99.90
2023-06-11T04:50:07.638Z,99.90
2023-06-11T04:52:44.507Z,99.90
2023-06-11T04:55:13.765Z,99.90
2023-06-11T04:57:41.509Z,99.90
2023-06-11T05:00:10.252Z,99.90
2023-06-11T05:02:38.650Z,99.90
2023-06-11T05:05:06.936Z,99.90
2023-06-11T05:07:34.333Z,99.90
2023-06-11T05:10:01.648Z,99.90
2023-06-11T05:12:28.656Z,99.90
2023-06-11T05:14:55.839Z,99.90
2023-06-11T05:17:23.563Z,99.90
2023-06-11T05:19:53.075Z,99.90
2023-06-11T05:22:20.819Z,99.90
2023-06-11T05:24:48.747Z,99.90
2023-06-11T05:27:16.434Z,99.90
2023-06-11T05:29:45.966Z,99.90
2023-06-11T05:32:16.642Z,99.90
2023-06-11T05:34:44.448Z,99.90
2023-06-11T05:37:11.701Z,99.00
2023-06-11T05:39:38.920Z,99.90
2023-06-11T05:42:07.509Z,99.10
2023-06-11T05:44:34.879Z,98.90
2023-06-11T05:47:02.540Z,98.30
2023-06-11T05:49:29.995Z,99.20
2023-06-11T05:51:56.900Z,98.40
2023-06-11T05:54:23.837Z,96.40
2023-06-11T05:56:50.984Z,94.30
2023-06-11T05:59:18.257Z,94.40
2023-06-11T06:01:48.538Z,94.50
2023-06-11T06:04:17.212Z,93.90
2023-06-11T06:06:44.413Z,93.40
2023-06-11T06:09:11.706Z,93.20
2023-06-11T06:11:39.095Z,92.50
2023-06-11T06:14:06.025Z,91.00
2023-06-11T06:16:33.273Z,87.30
2023-06-11T06:19:00.324Z,89.30
2023-06-11T06:21:27.315Z,86.30
2023-06-11T06:23:54.342Z,88.60
2023-06-11T06:26:21.553Z,87.20
2023-06-11T06:28:48.484Z,84.50
2023-06-11T06:31:18.012Z,81.30
2023-06-11T06:33:45.589Z,79.50
2023-06-11T06:36:12.878Z,81.30
2023-06-11T06:38:41.568Z,82.30
2023-06-11T06:41:08.601Z,82.30
2023-06-11T06:43:36.618Z,80.10
2023-06-11T06:46:03.739Z,77.00
2023-06-11T06:48:30.871Z,75.90
2023-06-11T06:50:57.893Z,72.90
2023-06-11T06:53:24.927Z,70.50
2023-06-11T06:55:53.566Z,68.40
2023-06-11T06:58:20.675Z,70.00
2023-06-11T07:00:47.738Z,64.50
2023-06-11T07:03:17.318Z,65.40
2023-06-11T07:05:44.904Z,62.10
2023-06-11T07:08:13.181Z,59.60
2023-06-11T07:10:48.744Z,59.60
2023-06-11T07:13:16.998Z,62.90
2023-06-11T07:15:43.858Z,56.10
2023-06-11T07:18:11.984Z,54.90
2023-06-11T07:20:38.793Z,58.00
2023-06-11T07:23:05.625Z,55.00
2023-06-11T07:25:32.761Z,55.10
2023-06-11T07:28:01.164Z,54.90
2023-06-11T07:30:31.643Z,46.20
2023-06-11T07:32:59.430Z,44.30
2023-06-11T07:35:27.592Z,44.60
2023-06-11T07:37:54.752Z,43.90
2023-06-11T07:40:21.831Z,44.00
2023-06-11T07:42:49.493Z,40.00
2023-06-11T07:45:16.628Z,40.00
2023-06-11T07:47:43.802Z,35.20
2023-06-11T07:50:11.697Z,36.10
2023-06-11T07:52:38.841Z,30.40
2023-06-11T07:55:06.851Z,30.80
2023-06-11T07:57:33.827Z,31.50
2023-06-11T08:00:01.362Z,34.20
2023-06-11T08:02:29.090Z,34.00
2023-06-11T08:04:56.356Z,32.10
2023-06-11T08:07:23.707Z,30.60
2023-06-11T08:09:51.760Z,28.60
2023-06-11T08:12:18.472Z,29.40
2023-06-11T08:14:45.252Z,29.90
2023-06-11T08:17:12.814Z,30.00
2023-06-11T08:19:39.516Z,27.20
2023-06-11T08:22:06.706Z,27.40
2023-06-11T08:24:33.586Z,25.70
2023-06-11T08:27:00.563Z,26.70
2023-06-11T08:29:27.578Z,25.80
2023-06-11T08:31:54.381Z,24.30
2023-06-11T08:34:21.162Z,24.00
2023-06-11T08:36:48.377Z,25.20
2023-06-11T08:39:15.174Z,22.50
2023-06-11T08:41:41.903Z,22.10
2023-06-11T08:44:09.021Z,21.80
2023-06-11T08:46:37.207Z,23.10
2023-06-11T08:49:08.518Z,21.60
2023-06-11T08:51:39.468Z,21.20
2023-06-11T08:54:10.685Z,18.00
2023-06-11T08:56:39.548Z,20.60
2023-06-11T08:59:08.175Z,19.40
2023-06-11T09:01:35.311Z,17.90
2023-06-11T09:04:02.649Z,16.10
2023-06-11T09:06:31.311Z,16.40
2023-06-11T09:09:08.648Z,15.20
2023-06-11T09:11:37.446Z,14.40
2023-06-11T09:14:05.668Z,11.60
2023-06-11T09:16:58.978Z,11.20
2023-06-11T09:19:26.081Z,10.60
2023-06-11T09:21:56.005Z,11.30
2023-06-11T09:24:24.635Z,11.00
2023-06-11T09:26:56.394Z,6.90
2023-06-11T09:29:24.808Z,1.60
2023-06-11T09:32:23.893Z,3.10
2023-06-11T09:34:58.745Z,1.00
2023-06-11T09:37:25.677Z,1.00
2023-06-11T09:39:52.598Z,1.00
2023-06-11T09:42:28.221Z,1.00
2023-06-11T09:45:00.976Z,1.00
2023-06-11T09:47:36.604Z,1.00
2023-06-11T09:50:03.976Z,1.00
2023-06-11T09:52:31.836Z,1.00
2023-06-11T09:55:00.109Z,1.00
2023-06-11T09:57:29.146Z,1.00
2023-06-11T09:59:56.901Z,1.00
2023-06-11T10:02:24.029Z,1.00
2023-06-11T10:04:51.613Z,1.00
2023-06-11T10:07:21.754Z,1.00
2023-06-11T10:09:51.568Z,1.00
2023-06-11T10:12:21.368Z,1.00
2023-06-11T10:14:56.185Z,1.00
2023-06-11T10:17:23.848Z,1.00
2023-06-11T10:19:51.177Z,1.00
2023-06-11T10:22:35.665Z,1.00
2023-06-11T10:25:04.435Z,1.00
2023-06-11T10:27:43.683Z,1.00
2023-06-11T10:30:11.468Z,1.00
2023-06-11T10:32:50.950Z,1.00
2023-06-11T10:35:26.283Z,1.00
2023-06-11T10:38:04.153Z,1.00
2023-06-11T10:40:38.704Z,1.00
2023-06-11T10:43:22.656Z,1.00
2023-06-11T10:46:04.073Z,1.00
2023-06-11T10:48:32.357Z,1.00
2023-06-11T10:51:09.402Z,1.00
2023-06-11T10:53:41.922Z,1.00
2023-06-11T10:56:10.645Z,1.00
2023-06-11T10:58:38.760Z,1.00
2023-06-11T11:01:08.287Z,1.00
2023-06-11T11:03:36.149Z,1.00
2023-06-11T11:06:04.365Z,1.00
2023-06-11T11:08:31.402Z,1.00
2023-06-11T11:11:03.093Z,1.00
2023-06-11T11:13:30.958Z,1.00
2023-06-11T11:15:59.898Z,1.00
2023-06-11T11:18:27.877Z,1.00
2023-06-11T11:20:55.893Z,1.00
2023-06-11T11:23:25.783Z,1.00
2023-06-11T11:25:53.013Z,1.00
2023-06-11T11:28:20.014Z,1.00
2023-06-11T11:30:47.070Z,1.00
2023-06-11T11:33:13.998Z,1.00
2023-06-11T11:35:57.090Z,1.00
2023-06-11T11:38:24.236Z,1.00
2023-06-11T11:40:58.343Z,1.00
2023-06-11T11:43:25.662Z,1.00
2023-06-11T11:45:54.402Z,1.00
2023-06-11T11:48:21.825Z,1.00
2023-06-11T11:51:07.058Z,1.00
2023-06-11T11:53:34.155Z,1.00
2023-06-11T11:56:06.566Z,1.00
2023-06-11T11:58:42.194Z,1.00
2023-06-11T12:01:23.079Z,1.00
2023-06-11T12:04:17.083Z,1.00
2023-06-11T12:06:43.970Z,1.00
2023-06-11T12:09:11.304Z,1.00
2023-06-11T12:11:48.677Z,1.00
2023-06-11T12:14:23.482Z,1.00
2023-06-11T12:16:50.981Z,1.00
2023-06-11T12:19:24.263Z,1.00
2023-06-11T12:21:52.481Z,1.00
2023-06-11T12:24:20.250Z,1.00
2023-06-11T12:26:52.526Z,1.00
2023-06-11T12:29:20.621Z,1.00
2023-06-11T12:31:48.289Z,1.00
2023-06-11T12:34:18.170Z,1.00
2023-06-11T12:36:46.310Z,1.00
2023-06-11T12:39:14.749Z,1.00
2023-06-11T12:41:42.124Z,1.00
2023-06-11T12:44:09.070Z,1.00
2023-06-11T12:46:37.578Z,1.00
2023-06-11T12:49:04.782Z,1.00
2023-06-11T12:51:32.034Z,1.00
2023-06-11T12:53:59.181Z,1.00
2023-06-11T12:56:26.835Z,1.00
2023-06-11T12:58:54.129Z,1.00
2023-06-11T13:01:21.416Z,1.00
2023-06-11T13:03:48.369Z,1.00
2023-06-11T13:06:15.389Z,1.00
2023-06-11T13:08:42.236Z,1.00
2023-06-11T13:11:09.642Z,1.00
2023-06-11T13:13:36.563Z,1.00
2023-06-11T13:16:03.558Z,1.00
2023-06-11T13:18:30.446Z,1.00
2023-06-11T13:21:00.275Z,1.00
2023-06-11T13:23:32.329Z,1.00
2023-06-11T13:26:00.435Z,1.00
2023-06-11T13:28:31.144Z,1.00
2023-06-11T13:30:59.718Z,1.00
2023-06-11T13:33:27.057Z,1.00
2023-06-11T13:35:54.010Z,1.00
2023-06-11T13:38:21.062Z,1.00
2023-06-11T13:40:47.991Z,1.00
2023-06-11T13:43:14.974Z,1.00
2023-06-11T13:45:49.572Z,1.00
2023-06-11T13:48:18.659Z,1.00
2023-06-11T13:50:48.479Z,1.00
2023-06-11T13:53:22.515Z,1.00
2023-06-11T13:55:49.895Z,1.00
2023-06-11T13:58:17.070Z,1.00
2023-06-11T14:00:44.804Z,1.00
2023-06-11T14:03:12.364Z,1.00
2023-06-11T14:05:39.771Z,1.00
2023-06-11T14:08:06.980Z,1.00
2023-06-11T14:10:33.999Z,1.00
2023-06-11T14:13:00.926Z,1.00
2023-06-11T14:15:28.400Z,1.00
2023-06-11T14:17:55.734Z,1.00
2023-06-11T14:20:22.728Z,1.00
2023-06-11T14:22:50.111Z,1.00
2023-06-11T14:25:17.408Z,1.00
2023-06-11T14:27:44.412Z,1.00
2023-06-11T14:30:13.065Z,1.00
2023-06-11T14:32:40.428Z,1.00
2023-06-11T14:35:07.685Z,1.00
2023-06-11T14:37:34.586Z,1.00
2023-06-11T14:40:01.625Z,1.00
2023-06-11T14:42:29.016Z,1.00
2023-06-11T14:44:56.122Z,1.00
2023-06-11T14:47:23.204Z,1.00
2023-06-11T14:49:50.471Z,1.00
2023-06-11T14:52:17.434Z,1.00
2023-06-11T14:54:44.411Z,1.00
2023-06-11T14:57:15.865Z,1.00
2023-06-11T14:59:44.058Z,1.00
2023-06-11T15:02:15.112Z,1.00
2023-06-11T15:04:44.434Z,1.00
2023-06-11T15:07:29.477Z,1.00
2023-06-11T15:10:02.705Z,1.00
2023-06-11T15:12:29.925Z,1.00
2023-06-11T15:14:56.875Z,1.00
2023-06-11T15:17:23.925Z,1.00
2023-06-11T15:19:50.978Z,1.00
2023-06-11T15:22:17.987Z,1.00
2023-06-11T15:24:44.921Z,1.00
2023-06-11T15:27:18.527Z,1.00
2023-06-11T15:29:46.150Z,1.00
2023-06-11T15:32:20.917Z,1.00
2023-06-11T15:34:48.389Z,1.00
2023-06-11T15:37:15.475Z,1.00
2023-06-11T15:39:42.446Z,1.00
2023-06-11T15:42:09.416Z,1.00
2023-06-11T15:44:36.325Z,1.00
2023-06-11T15:47:03.555Z,1.00
2023-06-11T15:49:30.574Z,1.00
2023-06-11T15:51:59.480Z,1.00
2023-06-11T15:54:26.401Z,1.00
2023-06-11T15:56:53.296Z,1.00
2023-06-11T15:59:20.245Z,1.00
2023-06-11T16:01:47.208Z,1.00
2023-06-11T16:04:14.464Z,1.00
2023-06-11T16:06:41.423Z,1.00
2023-06-11T16:09:09.504Z,1.00
2023-06-11T16:11:38.544Z,1.00
2023-06-11T16:14:05.698Z,1.00
2023-06-11T16:16:32.734Z,1.00
2023-06-11T16:18:59.612Z,1.00
2023-06-11T16:21:26.524Z,1.00
2023-06-11T16:23:53.592Z,1.00
2023-06-11T16:26:20.783Z,1.00
2023-06-11T16:28:48.103Z,1.00
2023-06-11T16:31:15.116Z,1.00
2023-06-11T16:33:56.255Z,1.00
2023-06-11T16:36:25.682Z,1.00
2023-06-11T16:38:52.852Z,1.00
2023-06-11T16:41:20.182Z,1.00
2023-06-11T16:43:47.830Z,1.00
2023-06-11T16:46:14.892Z,1.00
2023-06-11T16:48:41.899Z,1.00
2023-06-11T16:51:08.998Z,1.00
2023-06-11T16:53:36.689Z,1.00
2023-06-11T16:56:04.083Z,1.00
2023-06-11T16:58:31.754Z,1.00
2023-06-11T17:00:59.012Z,1.00
2023-06-11T17:03:26.384Z,1.00
2023-06-11T17:05:54.137Z,1.00
2023-06-11T17:08:21.525Z,1.00
2023-06-11T17:10:48.589Z,1.00
2023-06-11T17:13:15.647Z,1.00
2023-06-11T17:15:42.623Z,1.00
2023-06-11T17:18:09.736Z,1.00
2023-06-11T17:20:40.794Z,1.00
2023-06-11T17:23:08.338Z,1.00
2023-06-11T17:25:35.872Z,1.00
2023-06-11T17:28:03.431Z,1.00
2023-06-11T17:30:31.092Z,1.00
2023-06-11T17:32:58.054Z,1.00
2023-06-11T17:35:25.132Z,1.00
2023-06-11T17:37:55.395Z,1.00
2023-06-11T17:40:28.420Z,1.00
2023-06-11T17:42:58.865Z,1.00
2023-06-11T17:45:27.344Z,1.00
2023-06-11T17:47:54.786Z,1.00
2023-06-11T17:50:23.224Z,1.00
2023-06-11T17:52:50.661Z,1.00
2023-06-11T17:55:17.832Z,1.00
2023-06-11T17:57:46.338Z,1.00
2023-06-11T18:00:15.216Z,1.00
2023-06-11T18:02:44.419Z,1.00
2023-06-11T18:05:13.169Z,1.00
2023-06-11T18:07:46.586Z,1.00
2023-06-11T18:10:17.725Z,1.00
2023-06-11T18:12:45.386Z,1.00
2023-06-11T18:15:31.527Z,1.00
2023-06-11T18:18:00.090Z,1.00
2023-06-11T18:20:28.961Z,1.00
2023-06-11T18:22:56.635Z,1.00
2023-06-11T18:25:23.622Z,1.00
2023-06-11T18:27:50.742Z,1.00
2023-06-11T18:30:20.815Z,1.00
2023-06-11T18:32:48.928Z,1.00
2023-06-11T18:35:15.979Z,1.00
2023-06-11T18:37:42.908Z,1.00
2023-06-11T18:40:10.484Z,1.00
2023-06-11T18:42:38.464Z,1.00
2023-06-11T18:45:06.142Z,1.00
2023-06-11T18:47:33.060Z,1.00
2023-06-11T18:49:59.921Z,1.00
2023-06-11T18:52:27.207Z,1.00
2023-06-11T18:54:54.248Z,1.00
2023-06-11T18:57:30.393Z,1.00
2023-06-11T18:59:58.161Z,1.00
2023-06-11T19:02:25.410Z,1.00
2023-06-11T19:04:53.866Z,1.00
2023-06-11T19:07:20.849Z,1.00
2023-06-11T19:09:47.839Z,1.00
2023-06-11T19:12:15.183Z,1.00
2023-06-11T19:14:42.161Z,1.00
2023-06-11T19:17:11.202Z,1.00
2023-06-11T19:19:38.480Z,1.00
2023-06-11T19:22:05.832Z,1.00
2023-06-11T19:24:32.751Z,1.00
2023-06-11T19:26:59.962Z,1.00
2023-06-11T19:29:28.667Z,1.00
2023-06-11T19:31:55.711Z,1.00
2023-06-11T19:34:23.440Z,1.00
2023-06-11T19:36:50.759Z,1.00
2023-06-11T19:39:17.817Z,1.00
2023-06-11T19:41:44.765Z,1.00
2023-06-11T19:44:12.130Z,1.00
2023-06-11T19:46:39.049Z,1.00
2023-06-11T19:49:06.538Z,1.00
2023-06-11T19:51:33.635Z,1.00
2023-06-11T19:54:01.214Z,1.00
2023-06-11T19:56:28.942Z,1.00
2023-06-11T19:58:57.533Z,1.00
2023-06-11T20:01:24.994Z,1.00
2023-06-11T20:03:52.099Z,1.00
2023-06-11T20:06:19.232Z,1.00
2023-06-11T20:08:46.310Z,1.00
2023-06-11T20:11:13.220Z,1.00
2023-06-11T20:13:45.079Z,1.00
2023-06-11T20:16:13.172Z,1.00
2023-06-11T20:18:41.546Z,1.00
2023-06-11T20:21:09.128Z,1.00
2023-06-11T20:23:36.826Z,1.00
2023-06-11T20:26:04.919Z,1.00
2023-06-11T20:28:31.886Z,1.00
2023-06-11T20:30:58.920Z,1.00
2023-06-11T20:33:26.183Z,1.00
2023-06-11T20:35:53.218Z,1.00
2023-06-11T20:38:20.217Z,1.00
2023-06-11T20:40:47.267Z,1.00
2023-06-11T20:43:14.214Z,1.00
2023-06-11T20:45:51.180Z,1.00
2023-06-11T20:48:24.295Z,1.00
2023-06-11T20:50:51.463Z,1.00
2023-06-11T20:53:32.574Z,1.00
2023-06-11T20:56:01.391Z,1.00
2023-06-11T20:58:28.513Z,1.00
2023-06-11T21:00:55.500Z,1.00
2023-06-11T21:03:22.715Z,1.00
2023-06-11T21:05:53.846Z,1.00
2023-06-11T21:08:21.444Z,1.00
2023-06-11T21:10:48.694Z,1.00
2023-06-11T21:13:16.204Z,1.00
2023-06-11T21:15:43.376Z,1.00
2023-06-11T21:18:10.922Z,1.00
2023-06-11T21:20:39.676Z,1.00
2023-06-11T21:23:06.941Z,1.00
2023-06-11T21:25:34.642Z,1.00
2023-06-11T21:28:01.794Z,1.00
2023-06-11T21:30:28.830Z,1.00
2023-06-11T21:32:56.164Z,1.00
2023-06-11T21:35:23.184Z,1.00
2023-06-11T21:37:50.520Z,1.00
2023-06-11T21:40:17.475Z,1.40
2023-06-11T21:42:44.606Z,1.50
2023-06-11T21:45:11.944Z,1.70
2023-06-11T21:47:39.338Z,2.30
2023-06-11T21:50:07.047Z,2.90
2023-06-11T21:52:39.253Z,3.60
2023-06-11T21:55:09.248Z,4.30
2023-06-11T21:57:36.596Z,4.90
2023-06-11T22:00:12.732Z,5.80
2023-06-11T22:02:41.737Z,6.40
2023-06-11T22:05:09.945Z,7.20
2023-06-11T22:07:37.330Z,7.80
2023-06-11T22:10:05.504Z,8.20
2023-06-11T22:12:41.896Z,9.20
2023-06-11T22:15:11.215Z,9.60
2023-06-11T22:17:40.965Z,10.20
2023-06-11T22:20:10.451Z,11.50
2023-06-11T22:22:40.386Z,12.40
2023-06-11T22:25:10.612Z,13.30
2023-06-11T22:27:43.377Z,14.00
2023-06-11T22:30:11.897Z,14.70
2023-06-11T22:32:39.908Z,15.70
2023-06-11T22:35:10.742Z,17.10
2023-06-11T22:37:38.068Z,17.80
2023-06-11T22:40:06.249Z,18.60
2023-06-11T22:42:33.812Z,19.30
2023-06-11T22:45:01.055Z,20.20
2023-06-11T22:47:29.383Z,21.30
2023-06-11T22:49:57.505Z,22.90
2023-06-11T22:52:24.726Z,23.30
2023-06-11T22:54:52.330Z,24.40
2023-06-11T22:57:19.380Z,25.00
2023-06-11T22:59:46.518Z,25.80
2023-06-11T23:02:14.112Z,26.90
2023-06-11T23:04:42.217Z,28.50
2023-06-11T23:07:12.444Z,28.60
2023-06-11T23:09:39.655Z,29.60
2023-06-11T23:12:08.261Z,30.80
2023-06-11T23:14:35.536Z,31.70
2023-06-11T23:17:04.340Z,33.50
2023-06-11T23:19:31.376Z,35.70
2023-06-11T23:21:59.723Z,37.30
2023-06-11T23:24:29.410Z,38.40
2023-06-11T23:27:02.391Z,39.50
2023-06-11T23:29:30.580Z,41.20
2023-06-11T23:31:57.767Z,41.50
2023-06-11T23:34:24.700Z,43.40
2023-06-11T23:36:51.822Z,45.90
2023-06-11T23:39:20.009Z,48.00
2023-06-11T23:41:47.340Z,50.00
2023-06-11T23:44:14.696Z,53.60
2023-06-11T23:46:41.670Z,55.40
2023-06-11T23:49:08.823Z,58.10
2023-06-11T23:51:35.851Z,60.00
2023-06-11T23:54:03.076Z,65.40
2023-06-11T23:56:32.391Z,68.30
2023-06-11T23:58:59.565Z,70.20
